createdAt,value
2022-12-09T00:00:22.597Z,29.65
2022-12-09T00:02:54.630Z,28.45
2022-12-09T00:05:27.043Z,30.02
2022-12-09T00:07:59.337Z,27.15
2022-12-09T00:10:31.573Z,26.77
2022-12-09T00:13:03.547Z,27.83
2022-12-09T00:15:35.593Z,28.58
2022-12-09T00:18:07.575Z,25.45
2022-12-09T00:20:39.579Z,24.92
2022-12-09T00:23:11.840Z,32.65
2022-12-09T00:25:43.778Z,24.63
2022-12-09T00:28:15.865Z,27.33
2022-12-09T00:30:47.913Z,30.02
2022-12-09T00:33:20.139Z,22.98
2022-12-09T00:35:52.172Z,24.13
2022-12-09T00:38:24.405Z,25.30
2022-12-09T00:40:56.342Z,31.73
2022-12-09T00:43:28.840Z,31.23
2022-12-09T00:46:02.159Z,28.95
2022-12-09T00:48:35.009Z,29.60
2022-12-09T00:51:09.353Z,31.55
2022-12-09T00:53:41.697Z,30.23
2022-12-09T00:56:14.732Z,30.38
2022-12-09T00:58:46.754Z,33.17
2022-12-09T01:01:18.918Z,29.55
2022-12-09T01:03:51.217Z,34.17
2022-12-09T01:06:26.167Z,29.42
2022-12-09T01:08:58.188Z,31.80
2022-12-09T01:11:30.685Z,32.10
2022-12-09T01:14:03.655Z,31.17
2022-12-09T01:16:36.665Z,26.45
2022-12-09T01:19:13.261Z,28.17
2022-12-09T01:21:45.360Z,30.88
2022-12-09T01:24:17.383Z,26.25
2022-12-09T01:26:49.709Z,27.77
2022-12-09T01:29:21.795Z,30.45
2022-12-09T01:31:55.543Z,32.35
2022-12-09T01:34:27.613Z,28.83
2022-12-09T01:36:59.842Z,32.17
2022-12-09T01:39:32.073Z,38.28
2022-12-09T01:42:05.326Z,37.25
2022-12-09T01:44:37.548Z,31.95
2022-12-09T01:47:23.156Z,38.05
2022-12-09T01:49:55.200Z,38.20
2022-12-09T01:52:27.453Z,38.60
2022-12-09T01:54:59.413Z,35.20
2022-12-09T01:57:31.794Z,43.88
2022-12-09T02:00:05.128Z,40.10
2022-12-09T02:02:38.868Z,37.72
2022-12-09T02:05:12.012Z,36.22
2022-12-09T02:07:44.437Z,35.78
2022-12-09T02:10:18.662Z,35.53
2022-12-09T02:13:11.756Z,40.25
2022-12-09T02:16:14.286Z,44.72
2022-12-09T02:19:00.686Z,39.08
2022-12-09T02:21:38.882Z,48.13
2022-12-09T02:24:23.636Z,41.28
2022-12-09T02:27:18.723Z,45.75
2022-12-09T02:30:05.965Z,51.30
2022-12-09T02:33:06.637Z,49.08
2022-12-09T02:41:22.509Z,47.75
2022-12-09T02:44:01.207Z,51.80
2022-12-09T02:46:36.298Z,49.80
2022-12-09T02:49:08.798Z,51.95
2022-12-09T02:51:42.659Z,47.53
2022-12-09T02:54:19.556Z,51.38
2022-12-09T02:57:00.886Z,48.20
2022-12-09T02:59:32.829Z,49.60
2022-12-09T03:02:30.366Z,53.45
2022-12-09T03:05:27.334Z,49.75
2022-12-09T03:08:23.008Z,53.88
2022-12-09T03:11:11.266Z,52.83
2022-12-09T03:14:13.198Z,50.95
2022-12-09T03:17:20.652Z,49.30
2022-12-09T03:20:02.064Z,50.53
2022-12-09T03:22:36.274Z,51.28
2022-12-09T03:25:18.305Z,49.53
2022-12-09T03:28:01.412Z,53.38
2022-12-09T03:30:38.507Z,55.15
2022-12-09T03:33:13.558Z,48.42
2022-12-09T03:35:53.153Z,47.65
2022-12-09T03:38:32.076Z,50.65
2022-12-09T03:41:24.953Z,51.42
2022-12-09T03:44:10.847Z,53.05
2022-12-09T03:46:43.477Z,52.90
2022-12-09T03:49:16.049Z,56.50
2022-12-09T03:52:28.154Z,48.65
2022-12-09T03:55:08.299Z,49.28
2022-12-09T03:57:44.175Z,38.67
2022-12-09T04:00:18.277Z,45.83
2022-12-09T04:02:50.805Z,49.60
2022-12-09T04:05:23.241Z,45.47
2022-12-09T04:07:55.364Z,46.38
2022-12-09T04:10:27.690Z,47.92
2022-12-09T04:13:00.209Z,44.63
2022-12-09T04:15:32.216Z,49.50
2022-12-09T04:18:04.357Z,46.38
2022-12-09T04:20:36.952Z,48.50
2022-12-09T04:23:08.936Z,45.20
2022-12-09T04:25:40.976Z,49.22
2022-12-09T04:28:13.242Z,51.60
2022-12-09T04:30:46.815Z,53.08
2022-12-09T04:33:18.804Z,47.47
2022-12-09T04:35:50.976Z,42.03
2022-12-09T04:38:22.966Z,49.00
2022-12-09T04:40:54.905Z,47.67
2022-12-09T04:43:27.093Z,46.33
2022-12-09T04:46:13.798Z,49.53
2022-12-09T04:48:47.055Z,50.65
2022-12-09T04:51:19.055Z,44.47
2022-12-09T04:53:51.300Z,49.10
2022-12-09T04:56:23.659Z,53.65
2022-12-09T04:58:55.932Z,42.20
2022-12-09T05:01:31.147Z,51.63
2022-12-09T05:04:04.387Z,45.95
2022-12-09T05:06:36.748Z,45.90
2022-12-09T05:09:13.418Z,44.47
2022-12-09T05:11:45.820Z,46.30
2022-12-09T05:14:18.145Z,48.30
2022-12-09T05:16:50.280Z,49.92
2022-12-09T05:19:22.802Z,48.88
2022-12-09T05:21:55.190Z,45.78
2022-12-09T05:24:27.309Z,48.00
2022-12-09T05:26:59.344Z,46.35
2022-12-09T05:29:31.547Z,43.83
2022-12-09T05:32:03.660Z,45.35
2022-12-09T05:34:35.926Z,48.50
2022-12-09T05:37:08.293Z,51.70
2022-12-09T05:39:40.776Z,48.17
2022-12-09T05:42:12.750Z,53.83
2022-12-09T05:44:44.956Z,48.95
2022-12-09T05:47:17.016Z,47.35
2022-12-09T05:49:49.165Z,47.85
2022-12-09T05:52:21.683Z,55.22
2022-12-09T05:54:53.949Z,55.08
2022-12-09T05:57:26.285Z,45.90
2022-12-09T06:00:01.365Z,49.53
2022-12-09T06:02:33.944Z,52.78
2022-12-09T06:05:07.251Z,47.20
2022-12-09T06:07:39.774Z,44.03
2022-12-09T06:10:13.068Z,54.08
2022-12-09T06:12:45.413Z,49.08
2022-12-09T06:15:21.474Z,54.17
2022-12-09T06:17:54.398Z,48.53
2022-12-09T06:20:27.220Z,52.28
2022-12-09T06:22:59.525Z,56.35
2022-12-09T06:25:31.526Z,43.92
2022-12-09T06:28:04.219Z,51.22
2022-12-09T06:30:37.229Z,61.03
2022-12-09T06:33:29.157Z,52.22
2022-12-09T06:36:04.102Z,54.42
2022-12-09T06:38:36.547Z,60.38
2022-12-09T06:41:14.253Z,49.38
2022-12-09T06:43:46.723Z,56.08
2022-12-09T06:46:24.650Z,63.38
2022-12-09T06:48:57.557Z,57.00
2022-12-09T06:51:30.098Z,54.97
2022-12-09T06:54:02.406Z,58.83
2022-12-09T06:56:34.594Z,51.28
2022-12-09T06:59:09.471Z,52.70
2022-12-09T07:01:41.863Z,53.20
2022-12-09T07:04:15.055Z,48.63
2022-12-09T07:06:48.033Z,50.40
2022-12-09T07:09:22.859Z,55.00
2022-12-09T07:11:55.348Z,54.45
2022-12-09T07:14:27.499Z,56.83
2022-12-09T07:17:00.921Z,69.00
2022-12-09T07:19:33.702Z,61.80
2022-12-09T07:22:05.677Z,56.88
2022-12-09T07:24:38.869Z,61.45
2022-12-09T07:27:19.411Z,63.63
2022-12-09T07:29:51.810Z,52.40
2022-12-09T07:32:24.318Z,53.10
2022-12-09T07:34:56.535Z,54.65
2022-12-09T07:37:29.028Z,55.97
2022-12-09T07:40:01.695Z,56.78
2022-12-09T07:42:34.197Z,56.95
2022-12-09T07:45:07.738Z,73.80
2022-12-09T07:47:40.131Z,84.50
2022-12-09T07:50:12.472Z,82.38
2022-12-09T07:52:44.687Z,102.20
2022-12-09T07:55:16.729Z,93.80
2022-12-09T07:57:48.699Z,93.88
2022-12-09T08:00:22.006Z,75.85
2022-12-09T08:02:54.082Z,80.93
2022-12-09T08:05:27.370Z,83.90
2022-12-09T08:07:59.816Z,83.82
2022-12-09T08:10:32.425Z,86.05
2022-12-09T08:13:04.930Z,91.18
2022-12-09T08:15:37.095Z,83.28
2022-12-09T08:18:09.323Z,106.55
2022-12-09T08:20:41.882Z,97.63
2022-12-09T08:23:14.315Z,109.75
2022-12-09T08:25:46.643Z,120.32
2022-12-09T08:28:18.825Z,102.32
2022-12-09T08:30:52.015Z,125.30
2022-12-09T08:33:25.299Z,113.78
2022-12-09T08:35:57.598Z,121.35
2022-12-09T08:38:32.064Z,119.68
2022-12-09T08:41:17.600Z,116.75
2022-12-09T08:43:50.029Z,132.27
2022-12-09T08:46:22.629Z,121.38
2022-12-09T08:48:54.845Z,119.40
2022-12-09T08:51:29.112Z,117.72
2022-12-09T08:54:02.383Z,108.68
2022-12-09T08:56:34.652Z,110.45
2022-12-09T08:59:06.792Z,102.57
2022-12-09T09:01:39.282Z,120.70
2022-12-09T09:04:15.321Z,106.45
2022-12-09T09:06:50.579Z,105.80
2022-12-09T09:09:23.630Z,101.35
2022-12-09T09:11:56.020Z,115.32
2022-12-09T09:14:28.518Z,102.47
2022-12-09T09:17:01.059Z,95.25
2022-12-09T09:19:33.509Z,109.13
2022-12-09T09:22:05.660Z,107.28
2022-12-09T09:24:37.816Z,97.03
2022-12-09T09:27:09.805Z,102.85
2022-12-09T09:29:41.961Z,91.90
2022-12-09T09:32:14.158Z,102.40
2022-12-09T09:34:48.700Z,90.20
2022-12-09T09:37:21.498Z,91.30
2022-12-09T09:39:53.516Z,95.35
2022-12-09T09:42:35.944Z,93.53
2022-12-09T09:45:16.580Z,95.35
2022-12-09T09:50:47.902Z,98.07
2022-12-09T09:53:26.827Z,91.43
2022-12-09T09:56:25.634Z,89.50
2022-12-09T09:59:19.734Z,90.93
2022-12-09T10:02:23.290Z,88.50
2022-12-09T10:05:37.638Z,97.22
2022-12-09T10:08:16.399Z,90.53
2022-12-09T10:10:55.053Z,91.82
2022-12-09T10:14:07.022Z,95.32
2022-12-09T10:17:04.480Z,95.70
2022-12-09T10:19:43.629Z,99.57
2022-12-09T10:22:23.215Z,89.45
2022-12-09T10:25:00.870Z,91.78
2022-12-09T10:27:47.215Z,98.90
2022-12-09T10:30:20.726Z,89.72
2022-12-09T10:32:54.423Z,84.85
2022-12-09T10:35:29.822Z,92.15
2022-12-09T10:38:17.595Z,80.72
2022-12-09T10:41:00.689Z,86.72
2022-12-09T10:43:40.118Z,79.57
2022-12-09T10:46:21.941Z,83.30
2022-12-09T10:49:02.408Z,90.63
2022-12-09T10:51:39.640Z,83.70
2022-12-09T10:54:15.456Z,82.68
2022-12-09T10:57:13.656Z,82.45
2022-12-09T11:00:22.766Z,75.47
2022-12-09T11:02:56.776Z,71.90
2022-12-09T11:05:32.101Z,70.55
2022-12-09T11:08:05.828Z,80.53
2022-12-09T11:10:39.100Z,83.05
2022-12-09T11:13:18.895Z,78.95
2022-12-09T11:16:01.289Z,81.07
2022-12-09T11:18:48.303Z,84.70
2022-12-09T11:21:36.881Z,90.82
2022-12-09T11:24:26.287Z,80.53
2022-12-09T11:26:58.866Z,82.30
2022-12-09T11:29:31.167Z,88.03
2022-12-09T11:32:03.956Z,81.00
2022-12-09T11:34:37.793Z,79.47
2022-12-09T11:37:11.768Z,74.65
2022-12-09T11:39:51.148Z,88.05
2022-12-09T11:42:24.813Z,76.78
2022-12-09T11:45:31.808Z,78.78
2022-12-09T11:48:35.015Z,74.72
2022-12-09T11:51:20.287Z,94.72
2022-12-09T11:54:01.896Z,79.13
2022-12-09T11:56:37.230Z,84.03
2022-12-09T11:59:18.053Z,86.95
2022-12-09T12:02:42.960Z,85.78
2022-12-09T12:05:44.919Z,78.68
2022-12-09T12:08:43.758Z,92.38
2022-12-09T12:11:23.853Z,84.65
2022-12-09T12:14:13.359Z,80.53
2022-12-09T12:17:12.577Z,77.13
2022-12-09T12:19:49.774Z,90.15
2022-12-09T12:22:54.861Z,92.13
2022-12-09T12:25:26.961Z,86.43
2022-12-09T12:28:23.464Z,91.65
2022-12-09T12:31:07.096Z,93.35
2022-12-09T12:34:27.225Z,92.75
2022-12-09T12:37:15.555Z,83.82
2022-12-09T12:39:54.632Z,78.35
2022-12-09T12:42:41.492Z,76.20
2022-12-09T12:45:43.154Z,87.75
2022-12-09T12:49:17.671Z,76.93
2022-12-09T12:52:55.009Z,71.60
2022-12-09T12:55:46.092Z,72.05
2022-12-09T12:58:45.351Z,74.97
2022-12-09T13:01:39.288Z,82.57
2022-12-09T13:04:48.629Z,84.95
2022-12-09T13:07:37.063Z,83.60
2022-12-09T13:10:33.517Z,81.22
2022-12-09T13:13:17.854Z,85.55
2022-12-09T13:15:59.577Z,83.25
2022-12-09T13:18:38.811Z,80.72
2022-12-09T13:21:12.332Z,90.23
2022-12-09T13:24:31.776Z,80.80
2022-12-09T13:27:37.036Z,87.97
2022-12-09T13:30:52.565Z,85.10
2022-12-09T13:33:31.945Z,77.22
2022-12-09T13:36:12.590Z,88.95
2022-12-09T13:38:44.550Z,82.15
2022-12-09T13:41:51.727Z,87.90
2022-12-09T13:44:35.186Z,78.53
2022-12-09T13:47:28.146Z,76.78
2022-12-09T13:50:04.993Z,79.80
2022-12-09T13:52:49.162Z,85.72
2022-12-09T13:55:31.461Z,86.68
2022-12-09T13:58:53.854Z,90.85
2022-12-09T14:01:52.108Z,92.97
2022-12-09T14:04:44.950Z,85.18
2022-12-09T14:07:33.287Z,83.85
2022-12-09T14:10:07.037Z,83.35
2022-12-09T14:12:44.089Z,85.43
2022-12-09T14:15:25.609Z,79.30
2022-12-09T14:18:01.794Z,76.05
2022-12-09T14:20:38.322Z,76.80
2022-12-09T14:23:10.137Z,80.05
2022-12-09T14:25:56.516Z,80.40
2022-12-09T14:28:34.388Z,83.43
2022-12-09T14:31:08.867Z,81.60
2022-12-09T14:33:47.940Z,88.40
2022-12-09T14:36:26.686Z,81.53
2022-12-09T14:39:26.786Z,79.88
2022-12-09T14:42:13.457Z,75.43
2022-12-09T14:44:59.848Z,78.22
2022-12-09T14:47:40.049Z,75.30
2022-12-09T14:52:58.328Z,80.93
2022-12-09T14:55:35.173Z,78.35
2022-12-09T14:58:07.213Z,73.32
2022-12-09T15:00:41.731Z,78.00
2022-12-09T15:03:33.213Z,73.75
2022-12-09T15:06:13.086Z,79.70
2022-12-09T15:08:45.855Z,70.05
2022-12-09T15:11:34.424Z,73.85
2022-12-09T15:14:27.473Z,79.13
2022-12-09T15:16:59.870Z,84.93
2022-12-09T15:22:30.424Z,77.55
2022-12-09T15:25:03.238Z,82.05
2022-12-09T15:27:35.185Z,77.10
2022-12-09T15:30:28.075Z,85.03
2022-12-09T15:33:01.060Z,76.50
2022-12-09T15:35:33.872Z,82.82
2022-12-09T15:38:08.838Z,81.47
2022-12-09T15:41:02.255Z,80.10
2022-12-09T15:43:36.545Z,88.18
2022-12-09T15:46:09.556Z,89.18
2022-12-09T15:48:48.633Z,82.45
2022-12-09T15:51:23.445Z,85.75
2022-12-09T15:54:14.881Z,90.05
2022-12-09T15:56:57.978Z,86.88
2022-12-09T15:59:56.154Z,92.28
2022-12-09T16:02:31.452Z,79.75
2022-12-09T16:05:06.998Z,83.05
2022-12-09T16:07:57.647Z,83.60
2022-12-09T16:10:29.825Z,84.18
2022-12-09T16:13:15.579Z,78.90
2022-12-09T16:15:54.675Z,85.53
2022-12-09T16:18:46.413Z,86.97
2022-12-09T16:21:27.244Z,90.22
2022-12-09T16:24:11.938Z,90.18
2022-12-09T16:26:49.779Z,85.15
2022-12-09T16:29:33.662Z,87.00
2022-12-09T16:32:40.019Z,88.07
2022-12-09T16:35:11.827Z,91.80
2022-12-09T16:38:09.421Z,83.03
2022-12-09T16:40:44.368Z,92.07
2022-12-09T16:43:16.343Z,80.07
2022-12-09T16:46:01.184Z,87.85
2022-12-09T16:48:33.212Z,98.32
2022-12-09T16:51:14.938Z,83.65
2022-12-09T16:53:50.436Z,104.25
2022-12-09T16:56:26.821Z,130.18
2022-12-09T16:58:59.844Z,91.75
2022-12-09T17:01:41.522Z,80.57
2022-12-09T17:04:24.977Z,83.82
2022-12-09T17:06:57.459Z,93.35
2022-12-09T17:09:29.471Z,82.78
2022-12-09T17:12:01.588Z,92.50
2022-12-09T17:14:33.595Z,81.20
2022-12-09T17:17:05.749Z,89.38
2022-12-09T17:19:37.711Z,88.70
2022-12-09T17:22:10.355Z,94.57
2022-12-09T17:24:42.389Z,92.70
2022-12-09T17:27:14.344Z,90.20
2022-12-09T17:29:46.306Z,96.72
2022-12-09T17:32:18.394Z,86.28
2022-12-09T17:34:50.577Z,92.50
2022-12-09T17:37:22.587Z,84.15
2022-12-09T17:40:01.611Z,90.90
2022-12-09T17:42:35.334Z,88.88
2022-12-09T17:45:08.333Z,82.80
2022-12-09T17:47:40.620Z,85.40
2022-12-09T17:50:12.587Z,81.70
2022-12-09T17:52:45.045Z,92.22
2022-12-09T17:55:17.228Z,80.35
2022-12-09T17:57:54.037Z,83.40
2022-12-09T18:00:26.261Z,75.80
2022-12-09T18:02:58.295Z,90.70
2022-12-09T18:05:30.260Z,87.75
2022-12-09T18:08:03.258Z,79.20
2022-12-09T18:10:35.270Z,73.68
2022-12-09T18:13:07.241Z,78.32
2022-12-09T18:15:39.244Z,79.90
2022-12-09T18:18:11.193Z,73.60
2022-12-09T18:20:43.159Z,80.78
2022-12-09T18:23:15.187Z,95.30
2022-12-09T18:25:47.213Z,80.88
2022-12-09T18:28:19.148Z,89.03
2022-12-09T18:30:51.148Z,81.65
2022-12-09T18:33:24.092Z,71.72
2022-12-09T18:35:55.985Z,76.93
2022-12-09T18:38:27.907Z,76.32
2022-12-09T18:41:02.465Z,76.35
2022-12-09T18:43:38.514Z,82.32
2022-12-09T18:46:14.676Z,70.85
2022-12-09T18:48:46.750Z,70.60
2022-12-09T18:51:21.819Z,74.45
2022-12-09T18:53:54.234Z,78.47
2022-12-09T18:56:27.273Z,67.57
2022-12-09T18:59:08.565Z,72.85
2022-12-09T19:01:44.737Z,75.47
2022-12-09T19:04:24.499Z,73.93
2022-12-09T19:07:00.102Z,75.57
2022-12-09T19:09:34.998Z,70.88
2022-12-09T19:12:44.831Z,76.20
2022-12-09T19:14:59.739Z,80.30
2022-12-09T19:17:32.713Z,85.88
2022-12-09T19:20:05.487Z,90.38
2022-12-09T19:22:37.603Z,86.82
2022-12-09T19:25:09.648Z,84.70
2022-12-09T19:27:41.575Z,81.78
2022-12-09T19:30:14.417Z,77.13
2022-12-09T19:32:53.843Z,78.65
2022-12-09T19:35:25.985Z,76.03
2022-12-09T19:38:01.230Z,87.95
2022-12-09T19:40:33.707Z,88.10
2022-12-09T19:43:05.690Z,88.68
2022-12-09T19:45:37.608Z,90.47
2022-12-09T19:48:10.245Z,77.20
2022-12-09T19:50:42.191Z,92.78
2022-12-09T19:53:14.141Z,82.88
2022-12-09T19:55:46.935Z,80.60
2022-12-09T19:58:18.982Z,91.38
2022-12-09T20:00:50.945Z,90.22
2022-12-09T20:03:23.480Z,85.18
2022-12-09T20:05:56.136Z,81.63
2022-12-09T20:08:28.168Z,102.30
2022-12-09T20:11:00.656Z,88.57
2022-12-09T20:13:33.280Z,86.00
2022-12-09T20:16:07.636Z,83.22
2022-12-09T20:18:39.961Z,74.53
2022-12-09T20:21:13.594Z,76.65
2022-12-09T20:23:47.391Z,81.65
2022-12-09T20:26:26.489Z,75.45
2022-12-09T20:29:06.047Z,77.97
2022-12-09T20:31:39.530Z,90.43
2022-12-09T20:34:18.910Z,75.50
2022-12-09T20:36:50.875Z,72.73
2022-12-09T20:39:23.283Z,72.80
2022-12-09T20:41:55.249Z,76.03
2022-12-09T20:44:27.248Z,75.90
2022-12-09T20:46:59.280Z,64.80
2022-12-09T20:49:31.317Z,74.20
2022-12-09T20:52:03.397Z,72.70
2022-12-09T20:54:35.429Z,74.88
2022-12-09T20:57:07.447Z,69.28
2022-12-09T20:59:39.369Z,69.63
2022-12-09T21:02:15.480Z,62.88
2022-12-09T21:04:47.451Z,63.83
2022-12-09T21:07:19.425Z,69.63
2022-12-09T21:09:51.380Z,72.43
2022-12-09T21:12:23.498Z,70.38
2022-12-09T21:14:55.624Z,60.65
2022-12-09T21:17:27.702Z,70.85
2022-12-09T21:19:59.725Z,66.60
2022-12-09T21:22:33.496Z,61.75
2022-12-09T21:25:06.334Z,65.43
2022-12-09T21:27:39.866Z,61.80
2022-12-09T21:30:12.704Z,54.97
2022-12-09T21:32:45.705Z,61.65
2022-12-09T21:35:17.719Z,60.30
2022-12-09T21:37:55.836Z,54.47
2022-12-09T21:40:28.522Z,57.70
2022-12-09T21:43:00.448Z,60.13
2022-12-09T21:45:33.049Z,60.70
2022-12-09T21:48:05.265Z,66.78
2022-12-09T21:50:37.207Z,54.42
2022-12-09T21:53:09.159Z,59.25
2022-12-09T21:55:41.202Z,58.75
2022-12-09T21:58:13.260Z,60.20
2022-12-09T22:00:45.505Z,63.00
2022-12-09T22:03:17.564Z,55.92
2022-12-09T22:05:52.617Z,58.00
2022-12-09T22:08:28.963Z,68.85
2022-12-09T22:11:01.323Z,66.93
2022-12-09T22:13:38.998Z,67.50
2022-12-09T22:16:21.439Z,80.05
2022-12-09T22:18:56.468Z,103.03
2022-12-09T22:21:31.379Z,69.53
2022-12-09T22:24:06.878Z,69.70
2022-12-09T22:26:40.096Z,70.63
2022-12-09T22:29:15.641Z,83.07
2022-12-09T22:31:47.944Z,77.72
2022-12-09T22:34:21.070Z,65.45
2022-12-09T22:36:54.326Z,73.32
2022-12-09T22:39:26.513Z,83.93
2022-12-09T22:41:58.448Z,78.20
2022-12-09T22:44:30.704Z,85.20
2022-12-09T22:47:02.693Z,85.88
2022-12-09T22:49:35.690Z,80.32
2022-12-09T22:52:07.625Z,81.43
2022-12-09T22:54:39.778Z,80.43
2022-12-09T22:57:11.708Z,74.20
2022-12-09T22:59:43.836Z,83.53
2022-12-09T23:02:15.860Z,76.53
2022-12-09T23:04:47.951Z,90.80
2022-12-09T23:07:19.983Z,81.50
2022-12-09T23:09:51.941Z,82.22
2022-12-09T23:12:23.907Z,78.38
2022-12-09T23:14:55.897Z,85.10
2022-12-09T23:17:27.840Z,82.40
2022-12-09T23:19:59.885Z,82.70
2022-12-09T23:22:31.916Z,92.35
2022-12-09T23:25:04.500Z,83.07
2022-12-09T23:27:36.658Z,91.97
2022-12-09T23:30:09.961Z,90.13
2022-12-09T23:32:42.209Z,90.50
2022-12-09T23:35:14.184Z,90.28
2022-12-09T23:37:46.162Z,91.22
2022-12-09T23:40:18.255Z,90.30
2022-12-09T23:42:53.549Z,89.25
2022-12-09T23:45:25.521Z,92.57
2022-12-09T23:47:57.440Z,88.20
2022-12-09T23:50:29.469Z,88.85
2022-12-09T23:53:01.414Z,95.57
2022-12-09T23:55:33.401Z,96.35
2022-12-09T23:58:05.344Z,89.97
